createdAt,value
2022-08-16T00:00:44.150Z,23.47
2022-08-16T00:03:14.877Z,23.35
2022-08-16T00:05:48.207Z,23.39
2022-08-16T00:08:35.848Z,23.78
2022-08-16T00:11:05.177Z,23.63
2022-08-16T00:13:41.433Z,23.59
2022-08-16T00:17:01.704Z,23.44
2022-08-16T00:18:59.049Z,23.31
2022-08-16T00:21:29.103Z,23.47
2022-08-16T00:24:00.725Z,23.27
2022-08-16T00:26:35.104Z,22.96
2022-08-16T00:29:06.806Z,23.18
2022-08-16T00:31:47.053Z,23.28
2022-08-16T00:34:45.165Z,22.72
2022-08-16T00:37:16.949Z,23.35
2022-08-16T00:39:47.224Z,23.38
2022-08-16T00:42:30.411Z,23.65
2022-08-16T00:45:09.436Z,23.51
2022-08-16T00:47:48.937Z,22.74
2022-08-16T00:50:21.212Z,23.02
2022-08-16T00:52:53.464Z,23.34
2022-08-16T00:55:25.805Z,23.34
2022-08-16T00:58:12.893Z,23.34
2022-08-16T01:00:41.501Z,23.50
2022-08-16T01:03:14.267Z,23.02
2022-08-16T01:05:43.623Z,22.89
2022-08-16T01:08:35.838Z,22.90
2022-08-16T01:11:06.550Z,22.65
2022-08-16T01:13:38.667Z,23.16
2022-08-16T01:16:20.110Z,23.15
2022-08-16T01:18:55.637Z,23.02
2022-08-16T01:21:36.719Z,22.82
2022-08-16T01:24:51.688Z,22.77
2022-08-16T01:27:15.426Z,22.59
2022-08-16T01:29:58.136Z,22.81
2022-08-16T01:32:33.225Z,22.61
2022-08-16T01:35:02.953Z,22.91
2022-08-16T01:37:37.909Z,22.87
2022-08-16T01:40:09.036Z,22.75
2022-08-16T01:42:37.111Z,22.62
2022-08-16T01:45:10.769Z,22.45
2022-08-16T01:47:49.373Z,22.63
2022-08-16T01:50:43.351Z,22.76
2022-08-16T01:53:10.165Z,22.89
2022-08-16T01:55:41.438Z,22.92
2022-08-16T01:58:10.807Z,23.11
2022-08-16T02:00:40.272Z,22.76
2022-08-16T02:03:08.565Z,22.29
2022-08-16T02:05:42.128Z,22.60
2022-08-16T02:08:32.713Z,22.92
2022-08-16T02:11:06.476Z,22.95
2022-08-16T02:13:35.506Z,22.80
2022-08-16T02:16:18.730Z,22.05
2022-08-16T02:18:48.393Z,22.10
2022-08-16T02:21:18.561Z,22.33
2022-08-16T02:23:59.853Z,22.33
2022-08-16T02:26:29.604Z,22.20
2022-08-16T02:29:02.623Z,22.11
2022-08-16T02:32:02.737Z,22.63
2022-08-16T02:34:20.884Z,23.08
2022-08-16T02:37:00.899Z,22.56
2022-08-16T02:39:30.266Z,22.91
2022-08-16T02:41:59.688Z,22.59
2022-08-16T02:44:28.539Z,22.98
2022-08-16T02:46:56.478Z,23.27
2022-08-16T02:49:57.946Z,23.22
2022-08-16T02:52:24.493Z,23.07
2022-08-16T02:54:55.240Z,23.05
2022-08-16T02:57:25.105Z,23.15
2022-08-16T02:59:53.336Z,22.92
2022-08-16T03:02:21.340Z,22.79
2022-08-16T03:05:00.339Z,23.07
2022-08-16T03:07:29.890Z,23.03
2022-08-16T03:10:08.502Z,22.73
2022-08-16T03:12:55.487Z,23.00
2022-08-16T03:15:24.636Z,22.75
2022-08-16T03:17:54.232Z,22.92
2022-08-16T03:20:32.269Z,22.94
2022-08-16T03:23:01.868Z,23.04
2022-08-16T03:25:44.342Z,22.97
2022-08-16T03:28:17.271Z,22.89
2022-08-16T03:30:45.907Z,23.02
2022-08-16T03:33:15.801Z,22.92
2022-08-16T03:35:44.761Z,22.70
2022-08-16T03:38:34.039Z,22.95
2022-08-16T03:41:05.138Z,22.99
2022-08-16T03:43:51.579Z,22.83
2022-08-16T03:46:44.461Z,22.92
2022-08-16T03:49:12.110Z,22.97
2022-08-16T03:51:41.410Z,22.79
2022-08-16T03:54:12.718Z,22.97
2022-08-16T03:56:57.191Z,22.86
2022-08-16T03:59:29.818Z,22.68
2022-08-16T04:01:58.965Z,22.76
2022-08-16T04:04:33.292Z,22.73
2022-08-16T04:07:03.459Z,22.73
2022-08-16T04:09:32.092Z,22.75
2022-08-16T04:12:10.969Z,22.86
2022-08-16T04:14:46.660Z,23.10
2022-08-16T04:17:16.400Z,23.04
2022-08-16T04:19:46.741Z,22.97
2022-08-16T04:22:17.119Z,23.24
2022-08-16T04:24:55.225Z,23.21
2022-08-16T04:27:29.073Z,23.17
2022-08-16T04:30:03.213Z,23.09
2022-08-16T04:32:31.780Z,23.25
2022-08-16T04:35:02.261Z,23.29
2022-08-16T04:37:42.415Z,23.23
2022-08-16T04:40:21.485Z,23.50
2022-08-16T04:42:50.464Z,23.14
2022-08-16T04:45:36.320Z,23.47
2022-08-16T04:48:05.482Z,23.33
2022-08-16T04:50:33.978Z,23.32
2022-08-16T04:53:01.770Z,23.48
2022-08-16T04:55:38.109Z,23.44
2022-08-16T04:58:45.163Z,23.58
2022-08-16T05:00:57.980Z,24.04
2022-08-16T05:03:26.152Z,24.07
2022-08-16T05:05:55.891Z,23.55
2022-08-16T05:08:31.048Z,23.91
2022-08-16T05:11:01.297Z,24.25
2022-08-16T05:13:41.267Z,24.28
2022-08-16T05:16:20.108Z,24.28
2022-08-16T05:18:48.670Z,24.41
2022-08-16T05:21:16.477Z,24.19
2022-08-16T05:23:51.756Z,24.33
2022-08-16T05:26:28.270Z,24.44
2022-08-16T05:28:57.332Z,24.33
2022-08-16T05:31:29.906Z,23.83
2022-08-16T05:34:00.274Z,23.91
2022-08-16T05:36:34.255Z,24.08
2022-08-16T05:39:07.849Z,24.38
2022-08-16T05:41:45.083Z,24.79
2022-08-16T05:44:22.840Z,24.80
2022-08-16T05:46:56.621Z,24.36
2022-08-16T05:49:38.628Z,24.99
2022-08-16T05:52:11.302Z,23.94
2022-08-16T05:54:46.816Z,24.01
2022-08-16T05:57:17.161Z,25.13
2022-08-16T05:59:47.193Z,25.14
2022-08-16T06:02:17.521Z,25.22
2022-08-16T06:04:45.823Z,25.36
2022-08-16T06:07:26.193Z,24.25
2022-08-16T06:09:58.308Z,25.43
2022-08-16T06:12:29.154Z,25.40
2022-08-16T06:14:59.644Z,25.59
2022-08-16T06:17:41.759Z,26.06
2022-08-16T06:20:18.144Z,25.60
2022-08-16T06:22:57.745Z,25.48
2022-08-16T06:25:36.597Z,25.49
2022-08-16T06:28:16.972Z,25.36
2022-08-16T06:30:59.753Z,25.74
2022-08-16T06:33:41.902Z,25.72
2022-08-16T06:36:11.517Z,26.09
2022-08-16T06:38:39.751Z,25.87
2022-08-16T06:41:27.692Z,25.85
2022-08-16T06:43:56.479Z,25.72
2022-08-16T06:46:31.726Z,25.55
2022-08-16T06:49:01.670Z,25.59
2022-08-16T06:51:45.221Z,26.03
2022-08-16T06:54:16.470Z,25.93
2022-08-16T06:56:45.700Z,26.14
2022-08-16T06:59:14.113Z,26.23
2022-08-16T07:01:46.250Z,25.76
2022-08-16T07:04:32.088Z,26.25
2022-08-16T07:07:01.767Z,26.42
2022-08-16T07:09:31.389Z,26.13
2022-08-16T07:12:05.484Z,25.92
2022-08-16T07:14:35.226Z,26.45
2022-08-16T07:17:03.605Z,26.38
2022-08-16T07:20:30.085Z,26.57
2022-08-16T07:22:37.942Z,25.79
2022-08-16T07:25:10.713Z,26.45
2022-08-16T07:27:41.109Z,26.89
2022-08-16T07:30:39.219Z,26.84
2022-08-16T07:33:04.510Z,26.87
2022-08-16T07:35:36.951Z,26.95
2022-08-16T07:38:12.581Z,27.10
2022-08-16T07:40:59.995Z,26.78
2022-08-16T07:43:29.946Z,26.89
2022-08-16T07:45:58.764Z,26.99
2022-08-16T07:48:29.736Z,27.22
2022-08-16T07:51:01.586Z,27.10
2022-08-16T07:53:35.060Z,27.28
2022-08-16T07:56:12.170Z,26.94
2022-08-16T07:58:42.300Z,27.23
2022-08-16T08:01:13.049Z,27.40
2022-08-16T08:03:48.901Z,27.23
2022-08-16T08:06:19.656Z,27.40
2022-08-16T08:08:51.616Z,27.60
2022-08-16T08:11:23.561Z,27.51
2022-08-16T08:13:53.823Z,27.25
2022-08-16T08:16:30.384Z,27.52
2022-08-16T08:19:00.473Z,27.34
2022-08-16T08:21:59.191Z,27.16
2022-08-16T08:24:32.009Z,27.36
2022-08-16T08:27:02.451Z,27.53
2022-08-16T08:29:37.597Z,27.51
2022-08-16T08:32:57.255Z,27.57
2022-08-16T08:35:00.381Z,27.73
2022-08-16T08:37:55.168Z,27.89
2022-08-16T08:40:24.721Z,27.98
2022-08-16T08:43:00.216Z,27.37
2022-08-16T08:45:48.878Z,27.64
2022-08-16T08:48:33.900Z,27.92
2022-08-16T08:51:04.418Z,27.86
2022-08-16T08:53:34.058Z,27.76
2022-08-16T08:56:23.432Z,28.01
2022-08-16T08:58:54.633Z,28.04
2022-08-16T09:01:36.293Z,27.60
2022-08-16T09:04:06.054Z,27.68
2022-08-16T09:06:35.180Z,28.09
2022-08-16T09:09:06.753Z,27.67
2022-08-16T09:11:40.549Z,27.92
2022-08-16T09:14:24.743Z,28.08
2022-08-16T09:17:01.543Z,28.06
2022-08-16T09:19:33.904Z,28.12
2022-08-16T09:22:03.263Z,27.90
2022-08-16T09:24:51.977Z,28.13
2022-08-16T09:27:21.476Z,28.35
2022-08-16T09:29:59.982Z,28.10
2022-08-16T09:32:30.831Z,28.21
2022-08-16T09:35:01.437Z,28.14
2022-08-16T09:37:36.653Z,28.56
2022-08-16T09:40:31.831Z,28.51
2022-08-16T09:42:59.286Z,28.58
2022-08-16T09:45:30.133Z,28.47
2022-08-16T09:47:59.115Z,28.75
2022-08-16T09:50:36.927Z,28.56
2022-08-16T09:53:15.346Z,28.55
2022-08-16T09:55:49.027Z,28.62
2022-08-16T09:58:41.247Z,28.53
2022-08-16T10:01:05.856Z,28.65
2022-08-16T10:03:36.424Z,28.64
2022-08-16T10:06:05.026Z,28.46
2022-08-16T10:08:33.131Z,28.52
2022-08-16T10:11:49.907Z,28.89
2022-08-16T10:14:19.842Z,28.60
2022-08-16T10:16:59.822Z,28.44
2022-08-16T10:19:32.055Z,28.98
2022-08-16T10:22:04.560Z,29.34
2022-08-16T10:24:33.777Z,29.36
2022-08-16T10:27:25.813Z,29.72
2022-08-16T10:30:01.401Z,29.74
2022-08-16T10:32:35.488Z,29.73
2022-08-16T10:35:08.958Z,29.44
2022-08-16T10:37:36.936Z,29.65
2022-08-16T10:40:28.745Z,29.92
2022-08-16T10:42:59.904Z,29.17
2022-08-16T10:45:36.990Z,29.16
2022-08-16T10:48:27.695Z,29.59
2022-08-16T10:50:58.263Z,29.65
2022-08-16T10:53:33.218Z,29.50
2022-08-16T10:56:02.987Z,29.63
2022-08-16T10:58:34.948Z,29.89
2022-08-16T11:03:57.128Z,29.28
2022-08-16T11:06:27.710Z,29.95
2022-08-16T11:14:36.638Z,28.47
2022-08-16T11:17:10.537Z,28.63
2022-08-16T11:22:47.139Z,28.55
2022-08-16T11:28:09.961Z,29.57
2022-08-16T11:30:41.232Z,29.39
2022-08-16T11:33:10.758Z,29.62
2022-08-16T11:35:44.210Z,29.21
2022-08-16T11:38:47.456Z,28.82
2022-08-16T11:41:05.115Z,29.36
2022-08-16T11:43:38.785Z,29.78
2022-08-16T11:46:44.406Z,29.77
2022-08-16T11:48:59.651Z,30.05
2022-08-16T11:51:27.521Z,29.98
2022-08-16T11:53:55.433Z,29.96
2022-08-16T11:56:51.608Z,29.96
2022-08-16T11:59:14.809Z,29.88
2022-08-16T12:01:59.572Z,30.16
2022-08-16T12:04:28.466Z,30.03
2022-08-16T12:06:57.058Z,30.09
2022-08-16T12:09:25.075Z,30.40
2022-08-16T12:11:58.254Z,29.91
2022-08-16T12:14:26.974Z,30.05
2022-08-16T12:17:08.111Z,30.27
2022-08-16T12:19:36.471Z,30.42
2022-08-16T12:22:19.409Z,30.41
2022-08-16T12:24:52.364Z,30.05
2022-08-16T12:27:23.999Z,30.20
2022-08-16T12:29:52.566Z,30.01
2022-08-16T12:32:37.906Z,30.03
2022-08-16T12:35:14.498Z,30.26
2022-08-16T12:37:43.899Z,30.55
2022-08-16T12:40:24.634Z,30.45
2022-08-16T12:42:58.705Z,30.13
2022-08-16T12:45:30.615Z,30.47
2022-08-16T12:48:35.203Z,30.47
2022-08-16T12:51:10.877Z,30.44
2022-08-16T12:53:45.740Z,30.75
2022-08-16T12:56:15.077Z,30.55
2022-08-16T12:58:49.328Z,30.52
2022-08-16T13:01:19.602Z,29.89
2022-08-16T13:04:11.510Z,29.72
2022-08-16T13:06:45.193Z,30.17
2022-08-16T13:09:20.433Z,30.13
2022-08-16T13:12:00.164Z,30.32
2022-08-16T13:14:34.034Z,30.12
2022-08-16T13:17:06.614Z,30.44
2022-08-16T13:20:06.546Z,30.65
2022-08-16T13:22:26.632Z,30.71
2022-08-16T13:24:55.856Z,30.33
2022-08-16T13:27:59.188Z,30.70
2022-08-16T13:30:36.286Z,30.73
2022-08-16T13:33:11.189Z,31.02
2022-08-16T13:35:45.591Z,30.74
2022-08-16T13:38:24.940Z,30.80
2022-08-16T13:40:56.567Z,31.24
2022-08-16T13:43:27.166Z,31.39
2022-08-16T13:45:56.394Z,31.34
2022-08-16T13:48:25.880Z,31.12
2022-08-16T13:51:02.514Z,30.82
2022-08-16T13:53:32.462Z,30.91
2022-08-16T13:56:00.633Z,30.52
2022-08-16T13:58:36.697Z,30.46
2022-08-16T14:01:09.961Z,30.68
2022-08-16T14:03:39.654Z,30.66
2022-08-16T14:06:11.142Z,30.78
2022-08-16T14:08:41.888Z,31.18
2022-08-16T14:11:12.604Z,30.93
2022-08-16T14:13:43.752Z,31.03
2022-08-16T14:16:23.891Z,30.23
2022-08-16T14:18:53.250Z,30.54
2022-08-16T14:21:24.132Z,30.46
2022-08-16T14:23:52.896Z,30.31
2022-08-16T14:26:21.347Z,30.49
2022-08-16T14:28:50.849Z,30.55
2022-08-16T14:31:20.322Z,29.96
2022-08-16T14:33:48.357Z,29.75
2022-08-16T14:36:18.736Z,30.30
2022-08-16T14:38:54.559Z,30.67
2022-08-16T14:41:22.415Z,30.05
2022-08-16T14:43:50.885Z,30.63
2022-08-16T14:46:18.777Z,30.55
2022-08-16T14:48:46.860Z,31.02
2022-08-16T14:51:15.833Z,31.27
2022-08-16T14:53:45.314Z,31.38
2022-08-16T14:56:38.201Z,31.30
2022-08-16T14:59:02.707Z,31.08
2022-08-16T15:01:57.946Z,30.96
2022-08-16T15:04:40.493Z,31.05
2022-08-16T15:07:11.217Z,30.85
2022-08-16T15:09:44.442Z,30.99
2022-08-16T15:12:33.902Z,30.67
2022-08-16T15:15:12.753Z,30.55
2022-08-16T15:17:56.198Z,30.89
2022-08-16T15:20:29.363Z,30.87
2022-08-16T15:23:00.249Z,30.99
2022-08-16T15:25:33.468Z,30.38
2022-08-16T15:28:05.992Z,30.50
2022-08-16T15:30:57.126Z,30.52
2022-08-16T15:33:26.842Z,30.55
2022-08-16T15:35:58.232Z,30.76
2022-08-16T15:38:55.000Z,30.80
2022-08-16T15:41:52.025Z,31.11
2022-08-16T15:44:26.130Z,30.72
2022-08-16T15:46:59.909Z,30.90
2022-08-16T15:49:46.373Z,30.83
2022-08-16T15:52:20.467Z,30.80
2022-08-16T15:54:53.079Z,30.69
2022-08-16T15:57:22.293Z,30.59
2022-08-16T15:59:55.812Z,30.61
2022-08-16T16:02:29.504Z,30.51
2022-08-16T16:05:02.387Z,30.31
2022-08-16T16:07:33.896Z,30.50
2022-08-16T16:10:05.202Z,30.76
2022-08-16T16:12:54.358Z,30.77
2022-08-16T16:15:29.314Z,30.60
2022-08-16T16:17:58.241Z,30.73
2022-08-16T16:20:31.730Z,31.01
2022-08-16T16:23:02.387Z,31.07
2022-08-16T16:25:33.681Z,30.67
2022-08-16T16:28:02.538Z,30.86
2022-08-16T16:30:44.621Z,30.61
2022-08-16T16:33:20.880Z,30.69
2022-08-16T16:35:56.981Z,31.02
2022-08-16T16:38:30.551Z,30.80
2022-08-16T16:41:00.478Z,30.65
2022-08-16T16:43:31.641Z,30.45
2022-08-16T16:46:05.823Z,30.88
2022-08-16T16:48:53.045Z,30.54
2022-08-16T16:51:22.625Z,30.28
2022-08-16T16:53:56.072Z,30.37
2022-08-16T16:56:31.353Z,30.59
2022-08-16T16:59:07.022Z,30.50
2022-08-16T17:01:57.662Z,30.51
2022-08-16T17:04:31.693Z,30.50
2022-08-16T17:07:01.791Z,30.70
2022-08-16T17:09:30.958Z,30.97
2022-08-16T17:11:59.559Z,30.81
2022-08-16T17:14:32.724Z,30.56
2022-08-16T17:17:17.601Z,30.25
2022-08-16T17:19:45.801Z,30.40
2022-08-16T17:22:19.858Z,30.45
2022-08-16T17:24:52.408Z,30.48
2022-08-16T17:27:33.791Z,30.26
2022-08-16T17:30:16.111Z,30.23
2022-08-16T17:32:54.552Z,30.13
2022-08-16T17:35:34.016Z,30.24
2022-08-16T17:38:04.800Z,30.17
2022-08-16T17:40:46.958Z,30.15
2022-08-16T17:43:33.005Z,30.07
2022-08-16T17:46:02.575Z,30.02
2022-08-16T17:48:32.211Z,30.01
2022-08-16T17:51:00.655Z,30.09
2022-08-16T17:53:28.557Z,30.08
2022-08-16T17:55:56.877Z,30.10
2022-08-16T17:58:25.249Z,30.08
2022-08-16T18:00:56.776Z,29.86
2022-08-16T18:03:40.812Z,29.94
2022-08-16T18:06:24.037Z,29.88
2022-08-16T18:09:00.302Z,29.94
2022-08-16T18:11:32.918Z,29.84
2022-08-16T18:14:00.926Z,29.75
2022-08-16T18:16:28.793Z,29.74
2022-08-16T18:18:58.465Z,29.65
2022-08-16T18:21:45.315Z,29.65
2022-08-16T18:24:15.373Z,29.52
2022-08-16T18:26:46.042Z,29.57
2022-08-16T18:29:14.281Z,29.32
2022-08-16T18:31:42.284Z,29.27
2022-08-16T18:34:11.637Z,29.13
2022-08-16T18:36:39.570Z,29.04
2022-08-16T18:39:07.521Z,28.93
2022-08-16T18:41:37.126Z,28.80
2022-08-16T18:44:26.273Z,28.73
2022-08-16T18:46:56.534Z,28.67
2022-08-16T18:49:26.309Z,28.52
2022-08-16T18:51:58.852Z,28.70
2022-08-16T18:54:28.185Z,28.69
2022-08-16T18:56:58.091Z,28.71
2022-08-16T18:59:29.473Z,28.58
2022-08-16T19:02:04.179Z,28.53
2022-08-16T19:04:54.851Z,28.45
2022-08-16T19:07:31.283Z,28.35
2022-08-16T19:10:01.463Z,28.40
2022-08-16T19:12:38.343Z,28.32
2022-08-16T19:15:15.899Z,28.25
2022-08-16T19:17:45.167Z,28.19
2022-08-16T19:20:22.311Z,28.20
2022-08-16T19:23:10.973Z,28.18
2022-08-16T19:25:46.613Z,28.27
2022-08-16T19:28:52.045Z,28.21
2022-08-16T19:31:10.740Z,28.06
2022-08-16T19:33:39.142Z,27.98
2022-08-16T19:36:16.990Z,27.91
2022-08-16T19:38:57.026Z,27.88
2022-08-16T19:41:32.258Z,27.89
2022-08-16T19:44:00.313Z,27.70
2022-08-16T19:46:28.140Z,27.73
2022-08-16T19:48:56.019Z,27.72
2022-08-16T19:51:25.765Z,27.68
2022-08-16T19:53:53.757Z,27.76
2022-08-16T19:56:25.807Z,27.67
2022-08-16T20:01:43.001Z,27.55
2022-08-16T20:04:12.901Z,27.33
2022-08-16T20:06:42.787Z,27.40
2022-08-16T20:09:15.326Z,27.50
2022-08-16T20:11:45.185Z,27.54
2022-08-16T20:14:20.184Z,27.42
2022-08-16T20:16:56.716Z,27.36
2022-08-16T20:19:25.271Z,27.30
2022-08-16T20:21:56.339Z,27.34
2022-08-16T20:24:39.913Z,27.43
2022-08-16T20:27:10.653Z,27.44
2022-08-16T20:29:42.912Z,27.41
2022-08-16T20:32:15.817Z,27.30
2022-08-16T20:34:47.447Z,26.99
2022-08-16T20:37:16.943Z,27.11
2022-08-16T20:39:46.599Z,27.29
2022-08-16T20:42:17.107Z,27.14
2022-08-16T20:44:45.765Z,27.21
2022-08-16T20:47:13.949Z,27.22
2022-08-16T20:49:42.249Z,26.70
2022-08-16T20:52:14.565Z,26.60
2022-08-16T20:54:45.476Z,27.00
2022-08-16T20:57:14.874Z,27.00
2022-08-16T20:59:48.046Z,26.51
2022-08-16T21:02:25.568Z,26.79
2022-08-16T21:04:54.100Z,26.54
2022-08-16T21:07:22.382Z,26.44
2022-08-16T21:09:51.589Z,26.90
2022-08-16T21:12:19.451Z,26.96
2022-08-16T21:14:47.541Z,26.66
2022-08-16T21:17:16.258Z,26.53
2022-08-16T21:19:45.408Z,26.59
2022-08-16T21:22:17.834Z,26.56
2022-08-16T21:24:47.565Z,26.66
2022-08-16T21:27:17.977Z,26.88
2022-08-16T21:29:46.744Z,26.83
2022-08-16T21:32:20.040Z,26.86
2022-08-16T21:35:07.707Z,26.73
2022-08-16T21:37:35.817Z,26.64
2022-08-16T21:40:05.352Z,26.30
2022-08-16T21:42:44.581Z,26.55
2022-08-16T21:45:15.249Z,26.63
2022-08-16T21:47:44.402Z,26.27
2022-08-16T21:50:15.206Z,26.35
2022-08-16T21:52:43.077Z,26.55
2022-08-16T21:55:11.028Z,26.39
2022-08-16T21:57:40.412Z,26.30
2022-08-16T22:00:14.171Z,26.55
2022-08-16T22:02:42.415Z,26.47
2022-08-16T22:05:10.641Z,26.48
2022-08-16T22:07:38.532Z,26.31
2022-08-16T22:11:06.735Z,26.34
2022-08-16T22:12:57.435Z,26.35
2022-08-16T22:15:26.823Z,25.81
2022-08-16T22:17:57.399Z,25.75
2022-08-16T22:20:27.792Z,25.77
2022-08-16T22:23:07.558Z,25.82
2022-08-16T22:25:35.508Z,25.98
2022-08-16T22:28:06.390Z,26.29
2022-08-16T22:30:34.340Z,26.38
2022-08-16T22:33:08.893Z,26.36
2022-08-16T22:35:43.396Z,26.34
2022-08-16T22:38:54.504Z,26.03
2022-08-16T22:41:01.589Z,25.74
2022-08-16T22:43:32.291Z,25.75
2022-08-16T22:46:00.214Z,25.38
2022-08-16T22:48:28.396Z,25.73
2022-08-16T22:50:56.265Z,25.87
2022-08-16T22:53:26.952Z,26.07
2022-08-16T22:55:55.052Z,25.63
2022-08-16T22:58:34.055Z,25.76
2022-08-16T23:01:05.835Z,25.59
2022-08-16T23:03:34.664Z,25.71
2022-08-16T23:06:02.639Z,25.64
2022-08-16T23:08:38.664Z,26.10
2022-08-16T23:11:20.915Z,26.14
2022-08-16T23:13:53.103Z,26.06
2022-08-16T23:16:32.796Z,25.78
2022-08-16T23:19:03.640Z,25.39
2022-08-16T23:21:32.266Z,25.35
2022-08-16T23:24:00.158Z,25.24
2022-08-16T23:26:47.105Z,25.24
2022-08-16T23:29:22.246Z,25.24
2022-08-16T23:31:55.009Z,25.08
2022-08-16T23:34:23.014Z,25.62
2022-08-16T23:36:51.026Z,25.56
2022-08-16T23:39:19.001Z,25.55
2022-08-16T23:41:48.274Z,25.65
2022-08-16T23:44:42.325Z,25.66
2022-08-16T23:47:05.226Z,25.20
2022-08-16T23:49:57.199Z,25.24
2022-08-16T23:52:39.267Z,25.48
2022-08-16T23:55:10.214Z,25.10
2022-08-16T23:57:39.528Z,25.13
